createdAt,value
2023-04-20T00:01:24.874Z,7.01
2023-04-20T00:03:51.848Z,7.14
2023-04-20T00:06:18.769Z,7.14
2023-04-20T00:08:45.550Z,7.09
2023-04-20T00:11:12.217Z,7.03
2023-04-20T00:13:38.984Z,6.96
2023-04-20T00:16:06.190Z,6.88
2023-04-20T00:18:32.935Z,6.91
2023-04-20T00:20:59.740Z,6.78
2023-04-20T00:23:26.346Z,6.77
2023-04-20T00:25:53.096Z,6.69
2023-04-20T00:28:19.809Z,6.66
2023-04-20T00:30:46.467Z,6.68
2023-04-20T00:33:13.055Z,6.66
2023-04-20T00:35:39.812Z,6.66
2023-04-20T00:38:06.451Z,6.61
2023-04-20T00:40:33.562Z,6.48
2023-04-20T00:43:10.459Z,6.51
2023-04-20T00:45:37.487Z,6.45
2023-04-20T00:48:04.964Z,6.40
2023-04-20T00:50:31.918Z,6.36
2023-04-20T00:52:58.957Z,6.39
2023-04-20T00:55:25.854Z,6.37
2023-04-20T00:57:53.151Z,6.33
2023-04-20T01:00:20.447Z,6.32
2023-04-20T01:02:48.043Z,6.28
2023-04-20T01:05:14.774Z,6.20
2023-04-20T01:07:41.485Z,6.17
2023-04-20T01:10:09.422Z,6.20
2023-04-20T01:12:36.683Z,6.22
2023-04-20T01:15:05.868Z,6.15
2023-04-20T01:17:33.618Z,6.05
2023-04-20T01:20:00.867Z,6.01
2023-04-20T01:22:27.666Z,5.84
2023-04-20T01:24:54.272Z,5.83
2023-04-20T01:27:21.325Z,5.77
2023-04-20T01:29:47.947Z,5.74
2023-04-20T01:32:14.562Z,5.79
2023-04-20T01:34:41.496Z,5.83
2023-04-20T01:37:08.374Z,5.79
2023-04-20T01:39:39.339Z,5.69
2023-04-20T01:42:06.655Z,5.65
2023-04-20T01:44:33.326Z,5.72
2023-04-20T01:47:00.036Z,5.70
2023-04-20T01:49:26.867Z,5.63
2023-04-20T01:51:53.552Z,5.73
2023-04-20T01:54:20.128Z,5.79
2023-04-20T01:56:46.705Z,5.85
2023-04-20T01:59:13.636Z,5.80
2023-04-20T02:01:40.181Z,5.77
2023-04-20T02:04:06.837Z,5.77
2023-04-20T02:06:33.475Z,5.84
2023-04-20T02:09:00.212Z,5.80
2023-04-20T02:11:26.911Z,5.87
2023-04-20T02:13:53.511Z,5.83
2023-04-20T02:16:20.217Z,5.81
2023-04-20T02:18:47.196Z,5.73
2023-04-20T02:21:13.983Z,5.64
2023-04-20T02:23:41.095Z,5.59
2023-04-20T02:26:07.754Z,5.51
2023-04-20T02:28:34.369Z,5.48
2023-04-20T02:31:01.008Z,5.44
2023-04-20T02:33:27.830Z,5.37
2023-04-20T02:35:54.423Z,5.27
2023-04-20T02:38:21.058Z,5.23
2023-04-20T02:40:48.350Z,5.22
2023-04-20T02:43:14.944Z,5.20
2023-04-20T02:45:41.519Z,5.20
2023-04-20T02:48:08.096Z,5.28
2023-04-20T02:50:36.326Z,5.34
2023-04-20T02:53:03.149Z,5.41
2023-04-20T02:55:30.071Z,5.49
2023-04-20T02:57:56.899Z,5.50
2023-04-20T03:00:23.830Z,5.55
2023-04-20T03:02:51.413Z,5.56
2023-04-20T03:05:18.563Z,5.52
2023-04-20T03:07:45.071Z,5.38
2023-04-20T03:10:12.032Z,5.31
2023-04-20T03:12:38.680Z,5.03
2023-04-20T03:15:08.348Z,4.70
2023-04-20T03:17:35.294Z,4.45
2023-04-20T03:20:01.936Z,4.10
2023-04-20T03:22:28.671Z,3.74
2023-04-20T03:24:55.323Z,3.40
2023-04-20T03:27:22.226Z,3.12
2023-04-20T03:29:48.945Z,2.91
2023-04-20T03:32:15.672Z,2.77
2023-04-20T03:34:42.263Z,2.72
2023-04-20T03:37:08.992Z,2.71
2023-04-20T03:39:35.645Z,2.64
2023-04-20T03:42:02.280Z,2.61
2023-04-20T03:44:29.022Z,2.64
2023-04-20T03:46:55.786Z,2.71
2023-04-20T03:49:25.128Z,2.78
2023-04-20T03:51:52.215Z,2.79
2023-04-20T03:54:19.002Z,2.76
2023-04-20T03:56:46.337Z,2.78
2023-04-20T03:59:12.922Z,2.77
2023-04-20T04:01:39.517Z,2.76
2023-04-20T04:04:06.487Z,2.75
2023-04-20T04:06:33.387Z,2.76
2023-04-20T04:08:59.956Z,2.76
2023-04-20T04:11:30.230Z,2.78
2023-04-20T04:13:58.672Z,2.93
2023-04-20T04:16:25.621Z,3.09
2023-04-20T04:18:52.201Z,3.23
2023-04-20T04:21:18.751Z,3.37
2023-04-20T04:23:45.481Z,3.53
2023-04-20T04:26:12.451Z,3.72
2023-04-20T04:28:39.021Z,3.85
2023-04-20T04:31:10.058Z,4.01
2023-04-20T04:33:36.770Z,4.23
2023-04-20T04:36:04.107Z,4.42
2023-04-20T04:38:33.450Z,4.67
2023-04-20T04:41:00.830Z,4.86
2023-04-20T04:43:28.079Z,5.11
2023-04-20T04:45:55.555Z,5.37
2023-04-20T04:48:23.185Z,5.66
2023-04-20T04:50:50.043Z,5.94
2023-04-20T04:53:16.800Z,6.17
2023-04-20T04:55:43.405Z,6.32
2023-04-20T04:58:10.195Z,6.47
2023-04-20T05:00:36.739Z,6.55
2023-04-20T05:03:04.043Z,6.67
2023-04-20T05:05:30.720Z,6.74
2023-04-20T05:07:57.281Z,6.82
2023-04-20T05:10:23.947Z,6.83
2023-04-20T05:12:52.415Z,6.87
2023-04-20T05:15:19.452Z,6.92
2023-04-20T05:17:46.119Z,6.96
2023-04-20T05:20:12.886Z,7.03
2023-04-20T05:22:39.541Z,7.12
2023-04-20T05:25:06.892Z,7.21
2023-04-20T05:27:34.638Z,7.29
2023-04-20T05:30:16.656Z,7.39
2023-04-20T05:32:47.212Z,7.45
2023-04-20T05:35:15.240Z,7.44
2023-04-20T05:37:41.832Z,7.44
2023-04-20T05:40:09.618Z,7.41
2023-04-20T05:42:36.329Z,7.34
2023-04-20T05:45:03.183Z,7.34
2023-04-20T05:47:29.854Z,7.40
2023-04-20T05:49:56.530Z,7.49
2023-04-20T05:52:23.545Z,7.54
2023-04-20T05:54:50.185Z,7.62
2023-04-20T05:57:16.798Z,7.75
2023-04-20T05:59:43.812Z,7.87
2023-04-20T06:02:10.610Z,8.05
2023-04-20T06:04:37.882Z,8.20
2023-04-20T06:07:04.721Z,8.32
2023-04-20T06:09:31.437Z,8.41
2023-04-20T06:11:58.098Z,8.50
2023-04-20T06:14:25.082Z,8.59
2023-04-20T06:16:51.645Z,8.66
2023-04-20T06:19:18.391Z,8.73
2023-04-20T06:21:45.181Z,8.68
2023-04-20T06:24:11.761Z,8.65
2023-04-20T06:26:38.325Z,8.64
2023-04-20T06:29:05.086Z,8.65
2023-04-20T06:31:31.702Z,8.69
2023-04-20T06:33:58.284Z,8.80
2023-04-20T06:36:24.847Z,8.90
2023-04-20T06:38:52.098Z,9.00
2023-04-20T06:41:18.669Z,9.07
2023-04-20T06:43:46.321Z,9.23
2023-04-20T06:46:13.013Z,9.33
2023-04-20T06:48:39.684Z,9.41
2023-04-20T06:51:06.577Z,9.47
2023-04-20T06:53:33.309Z,9.48
2023-04-20T06:56:00.316Z,9.61
2023-04-20T06:58:27.128Z,9.62
2023-04-20T07:00:53.743Z,9.56
2023-04-20T07:03:20.657Z,9.57
2023-04-20T07:05:47.347Z,9.55
2023-04-20T07:08:15.929Z,9.59
2023-04-20T07:10:42.782Z,9.68
2023-04-20T07:13:09.453Z,9.79
2023-04-20T07:15:36.070Z,9.99
2023-04-20T07:18:03.104Z,10.38
2023-04-20T07:20:29.708Z,10.19
2023-04-20T07:22:56.374Z,10.04
2023-04-20T07:25:23.492Z,10.02
2023-04-20T07:27:50.391Z,9.99
2023-04-20T07:30:17.085Z,9.88
2023-04-20T07:32:43.648Z,9.74
2023-04-20T07:35:10.875Z,9.46
2023-04-20T07:37:37.626Z,9.27
2023-04-20T07:40:07.470Z,9.17
2023-04-20T07:42:35.200Z,9.17
2023-04-20T07:45:01.883Z,9.16
2023-04-20T07:47:28.482Z,9.16
2023-04-20T07:49:55.211Z,9.27
2023-04-20T07:52:21.873Z,9.26
2023-04-20T07:54:48.523Z,9.28
2023-04-20T07:57:15.434Z,9.16
2023-04-20T07:59:42.177Z,9.07
2023-04-20T08:02:09.146Z,8.86
2023-04-20T08:04:39.158Z,8.85
2023-04-20T08:07:06.030Z,8.71
2023-04-20T08:09:32.847Z,8.58
2023-04-20T08:12:00.393Z,8.50
2023-04-20T08:14:27.590Z,8.37
2023-04-20T08:16:54.218Z,8.03
2023-04-20T08:19:21.134Z,7.73
2023-04-20T08:21:47.767Z,7.49
2023-04-20T08:24:14.602Z,7.31
2023-04-20T08:26:44.356Z,7.32
2023-04-20T08:29:11.431Z,7.20
2023-04-20T08:31:38.232Z,7.19
2023-04-20T08:34:04.840Z,7.03
2023-04-20T08:36:32.142Z,6.83
2023-04-20T08:39:07.837Z,6.66
2023-04-20T08:41:34.929Z,6.66
2023-04-20T08:44:01.742Z,6.61
2023-04-20T08:46:29.018Z,6.82
2023-04-20T08:48:56.580Z,6.82
2023-04-20T08:51:24.457Z,6.72
2023-04-20T08:53:51.835Z,6.86
2023-04-20T08:56:18.758Z,6.93
2023-04-20T08:58:45.366Z,7.16
2023-04-20T09:01:17.693Z,7.22
2023-04-20T09:03:46.971Z,7.27
2023-04-20T09:06:18.035Z,7.23
2023-04-20T09:08:46.581Z,7.14
2023-04-20T09:11:27.038Z,7.16
2023-04-20T09:14:06.980Z,7.28
2023-04-20T09:16:34.956Z,7.28
2023-04-20T09:19:01.760Z,7.27
2023-04-20T09:21:36.073Z,7.53
2023-04-20T09:24:07.928Z,7.64
2023-04-20T09:26:36.267Z,7.48
2023-04-20T09:29:04.342Z,7.36
2023-04-20T09:31:31.049Z,7.25
2023-04-20T09:33:57.838Z,7.23
2023-04-20T09:36:26.216Z,7.27
2023-04-20T09:39:03.880Z,7.30
2023-04-20T09:41:32.124Z,7.27
2023-04-20T09:43:59.109Z,7.25
2023-04-20T09:46:28.598Z,7.32
2023-04-20T09:48:55.845Z,7.26
2023-04-20T09:51:22.986Z,7.32
2023-04-20T09:53:51.651Z,7.29
2023-04-20T09:56:20.999Z,7.23
2023-04-20T09:58:51.176Z,7.28
2023-04-20T10:01:18.288Z,7.12
2023-04-20T10:03:45.870Z,7.05
2023-04-20T10:06:39.230Z,7.27
2023-04-20T10:09:08.564Z,7.16
2023-04-20T10:11:52.797Z,7.13
2023-04-20T10:14:25.397Z,7.23
2023-04-20T10:17:06.867Z,7.41
2023-04-20T10:19:41.607Z,7.43
2023-04-20T10:22:12.767Z,7.57
2023-04-20T10:24:39.868Z,7.58
2023-04-20T10:27:19.861Z,7.53
2023-04-20T10:29:46.689Z,7.69
2023-04-20T10:32:29.374Z,7.85
2023-04-20T10:35:07.825Z,8.19
2023-04-20T10:37:35.634Z,8.64
2023-04-20T10:40:07.328Z,9.10
2023-04-20T10:42:44.565Z,9.38
2023-04-20T10:45:12.191Z,9.53
2023-04-20T10:47:40.872Z,8.95
2023-04-20T10:50:12.861Z,9.13
2023-04-20T10:52:41.308Z,9.27
2023-04-20T10:55:21.518Z,9.37
2023-04-20T10:57:50.510Z,9.73
2023-04-20T11:00:21.896Z,9.90
2023-04-20T11:02:53.812Z,10.30
2023-04-20T11:05:22.856Z,10.13
2023-04-20T11:08:00.286Z,9.69
2023-04-20T11:10:42.712Z,10.19
2023-04-20T11:13:29.189Z,10.25
2023-04-20T11:15:55.993Z,10.05
2023-04-20T11:18:22.716Z,10.12
2023-04-20T11:20:54.393Z,10.22
2023-04-20T11:23:22.090Z,10.16
2023-04-20T11:25:53.932Z,10.01
2023-04-20T11:28:20.767Z,9.78
2023-04-20T11:30:47.575Z,9.71
2023-04-20T11:33:14.619Z,10.04
2023-04-20T11:35:43.176Z,10.09
2023-04-20T11:38:10.268Z,10.37
2023-04-20T11:40:36.961Z,10.16
2023-04-20T11:43:04.897Z,9.76
2023-04-20T11:45:35.683Z,9.44
2023-04-20T11:48:04.621Z,9.36
2023-04-20T11:50:31.956Z,9.19
2023-04-20T11:52:58.613Z,9.24
2023-04-20T11:55:25.177Z,9.28
2023-04-20T11:57:53.949Z,9.12
2023-04-20T12:00:21.087Z,8.85
2023-04-20T12:02:47.898Z,9.01
2023-04-20T12:05:15.610Z,8.92
2023-04-20T12:07:43.372Z,8.95
2023-04-20T12:10:10.360Z,8.90
2023-04-20T12:12:38.268Z,8.80
2023-04-20T12:15:05.560Z,8.68
2023-04-20T12:17:32.229Z,8.58
2023-04-20T12:19:58.861Z,8.46
2023-04-20T12:22:25.514Z,8.49
2023-04-20T12:24:52.270Z,8.56
2023-04-20T12:27:18.946Z,8.53
2023-04-20T12:29:45.647Z,8.49
2023-04-20T12:32:12.241Z,8.47
2023-04-20T12:34:38.955Z,8.50
2023-04-20T12:37:05.594Z,8.62
2023-04-20T12:39:32.252Z,8.73
2023-04-20T12:41:58.886Z,8.71
2023-04-20T12:44:25.660Z,8.81
2023-04-20T12:46:52.277Z,9.07
2023-04-20T12:49:19.444Z,9.35
2023-04-20T12:51:46.483Z,9.57
2023-04-20T12:54:13.098Z,9.75
2023-04-20T12:56:39.762Z,9.79
2023-04-20T12:59:06.338Z,9.86
2023-04-20T13:01:33.046Z,9.99
2023-04-20T13:03:59.954Z,10.10
2023-04-20T13:06:26.832Z,10.35
2023-04-20T13:08:53.828Z,10.35
2023-04-20T13:11:20.592Z,10.78
2023-04-20T13:13:47.152Z,11.42
2023-04-20T13:16:14.469Z,11.01
2023-04-20T13:18:41.195Z,10.69
2023-04-20T13:21:08.467Z,10.66
2023-04-20T13:23:35.056Z,10.51
2023-04-20T13:26:01.817Z,11.50
2023-04-20T13:28:28.567Z,12.11
2023-04-20T13:30:57.694Z,12.71
2023-04-20T13:33:24.373Z,12.75
2023-04-20T13:35:50.948Z,12.36
2023-04-20T13:38:17.654Z,11.97
2023-04-20T13:40:45.912Z,11.25
2023-04-20T13:43:12.801Z,10.69
2023-04-20T13:45:39.555Z,10.25
2023-04-20T13:48:06.504Z,10.19
2023-04-20T13:50:33.121Z,10.10
2023-04-20T13:52:59.682Z,9.99
2023-04-20T13:55:27.234Z,9.90
2023-04-20T13:57:53.899Z,9.86
2023-04-20T14:00:20.694Z,9.78
2023-04-20T14:02:50.364Z,9.71
2023-04-20T14:05:17.038Z,9.60
2023-04-20T14:07:43.614Z,9.56
2023-04-20T14:10:10.385Z,9.55
2023-04-20T14:12:36.942Z,9.63
2023-04-20T14:15:04.540Z,9.70
2023-04-20T14:17:31.096Z,9.83
2023-04-20T14:19:57.759Z,9.90
2023-04-20T14:22:24.348Z,9.88
2023-04-20T14:24:50.984Z,9.81
2023-04-20T14:27:17.674Z,9.76
2023-04-20T14:29:44.659Z,9.72
2023-04-20T14:32:11.227Z,9.66
2023-04-20T14:34:38.059Z,9.65
2023-04-20T14:37:04.681Z,9.68
2023-04-20T14:39:31.380Z,9.74
2023-04-20T14:41:58.157Z,9.80
2023-04-20T14:44:24.904Z,9.91
2023-04-20T14:46:51.831Z,10.09
2023-04-20T14:49:18.859Z,10.46
2023-04-20T14:51:45.441Z,10.80
2023-04-20T14:54:12.150Z,11.16
2023-04-20T14:56:38.710Z,11.28
2023-04-20T14:59:05.384Z,10.90
2023-04-20T15:01:32.030Z,10.72
2023-04-20T15:03:59.056Z,11.25
2023-04-20T15:06:26.026Z,11.31
2023-04-20T15:08:56.519Z,11.15
2023-04-20T15:11:23.187Z,11.65
2023-04-20T15:13:51.158Z,11.98
2023-04-20T15:16:17.978Z,11.73
2023-04-20T15:18:44.837Z,11.80
2023-04-20T15:21:11.697Z,11.95
2023-04-20T15:23:38.254Z,11.75
2023-04-20T15:26:05.047Z,11.57
2023-04-20T15:28:31.551Z,11.47
2023-04-20T15:30:58.110Z,11.12
2023-04-20T15:33:24.830Z,11.02
2023-04-20T15:35:51.418Z,10.89
2023-04-20T15:38:18.276Z,10.74
2023-04-20T15:40:44.935Z,10.69
2023-04-20T15:43:11.548Z,10.63
2023-04-20T15:45:38.186Z,10.57
2023-04-20T15:48:04.891Z,10.60
2023-04-20T15:50:31.807Z,10.74
2023-04-20T15:52:58.358Z,10.88
2023-04-20T15:55:25.256Z,10.91
2023-04-20T15:57:57.106Z,10.94
2023-04-20T16:00:24.552Z,10.59
2023-04-20T16:02:52.594Z,10.35
2023-04-20T16:05:20.183Z,10.10
2023-04-20T16:07:46.873Z,9.94
2023-04-20T16:10:13.520Z,9.86
2023-04-20T16:12:46.296Z,9.78
2023-04-20T16:15:13.124Z,9.70
2023-04-20T16:17:39.785Z,9.73
2023-04-20T16:20:08.403Z,9.72
2023-04-20T16:22:34.921Z,9.73
2023-04-20T16:25:01.458Z,9.79
2023-04-20T16:27:28.118Z,9.86
2023-04-20T16:29:55.076Z,9.91
2023-04-20T16:32:22.326Z,10.02
2023-04-20T16:34:49.251Z,10.08
2023-04-20T16:37:16.155Z,10.14
2023-04-20T16:39:43.638Z,10.15
2023-04-20T16:42:10.413Z,10.13
2023-04-20T16:44:37.604Z,10.14
2023-04-20T16:47:05.319Z,10.15
2023-04-20T16:49:32.333Z,10.14
2023-04-20T16:51:58.985Z,10.12
2023-04-20T16:54:25.808Z,10.12
2023-04-20T16:56:52.397Z,10.08
2023-04-20T16:59:19.047Z,10.14
2023-04-20T17:01:45.940Z,10.34
2023-04-20T17:04:12.712Z,10.58
2023-04-20T17:06:39.444Z,10.82
2023-04-20T17:09:07.620Z,10.94
2023-04-20T17:11:38.991Z,10.81
2023-04-20T17:14:06.553Z,10.60
2023-04-20T17:16:33.576Z,10.35
2023-04-20T17:19:00.231Z,10.02
2023-04-20T17:21:27.792Z,9.63
2023-04-20T17:23:55.018Z,9.26
2023-04-20T17:26:21.823Z,8.99
2023-04-20T17:28:48.415Z,8.76
2023-04-20T17:31:15.163Z,8.66
2023-04-20T17:33:43.536Z,8.58
2023-04-20T17:36:10.125Z,8.51
2023-04-20T17:38:38.462Z,8.51
2023-04-20T17:41:05.242Z,8.46
2023-04-20T17:43:31.998Z,8.45
2023-04-20T17:45:58.848Z,8.52
2023-04-20T17:48:25.693Z,8.61
2023-04-20T17:50:52.376Z,8.69
2023-04-20T17:53:19.087Z,8.79
2023-04-20T17:55:46.004Z,8.83
2023-04-20T17:58:13.089Z,8.89
2023-04-20T18:00:40.308Z,8.94
2023-04-20T18:03:07.110Z,8.95
2023-04-20T18:05:33.911Z,8.91
2023-04-20T18:08:00.714Z,8.84
2023-04-20T18:10:27.650Z,8.82
2023-04-20T18:12:54.513Z,8.76
2023-04-20T18:15:21.238Z,8.74
2023-04-20T18:17:49.462Z,8.76
2023-04-20T18:20:16.154Z,8.67
2023-04-20T18:22:42.872Z,8.73
2023-04-20T18:25:10.013Z,8.73
2023-04-20T18:27:37.377Z,8.83
2023-04-20T18:30:04.385Z,8.76
2023-04-20T18:32:33.295Z,8.60
2023-04-20T18:35:00.434Z,8.44
2023-04-20T18:37:27.085Z,8.31
2023-04-20T18:39:53.726Z,8.20
2023-04-20T18:42:20.407Z,8.10
2023-04-20T18:44:49.641Z,8.00
2023-04-20T18:47:19.036Z,7.93
2023-04-20T18:49:45.667Z,7.82
2023-04-20T18:52:12.764Z,7.68
2023-04-20T18:54:39.748Z,7.59
2023-04-20T18:57:07.156Z,7.48
2023-04-20T18:59:34.171Z,7.31
2023-04-20T19:02:00.864Z,7.17
2023-04-20T19:04:27.801Z,7.21
2023-04-20T19:06:54.599Z,7.19
2023-04-20T19:09:21.125Z,7.12
2023-04-20T19:11:47.883Z,7.04
2023-04-20T19:14:14.657Z,6.99
2023-04-20T19:16:41.375Z,6.96
2023-04-20T19:19:08.118Z,6.87
2023-04-20T19:21:34.753Z,6.77
2023-04-20T19:24:01.485Z,6.76
2023-04-20T19:26:28.098Z,6.85
2023-04-20T19:28:54.844Z,6.95
2023-04-20T19:31:21.729Z,7.07
2023-04-20T19:33:48.324Z,7.28
2023-04-20T19:36:15.004Z,7.42
2023-04-20T19:38:41.742Z,7.57
2023-04-20T19:41:08.429Z,7.73
2023-04-20T19:43:36.331Z,7.88
2023-04-20T19:46:03.256Z,7.92
2023-04-20T19:48:29.889Z,7.98
2023-04-20T19:50:57.778Z,8.02
2023-04-20T19:53:25.376Z,8.06
2023-04-20T19:55:52.157Z,8.06
2023-04-20T19:58:19.172Z,8.06
2023-04-20T20:00:46.147Z,8.00
2023-04-20T20:03:15.046Z,7.89
2023-04-20T20:05:43.027Z,7.74
2023-04-20T20:08:10.211Z,7.69
2023-04-20T20:10:37.174Z,7.58
2023-04-20T20:13:03.791Z,7.54
2023-04-20T20:15:32.561Z,7.47
2023-04-20T20:17:59.766Z,7.40
2023-04-20T20:20:31.462Z,7.29
2023-04-20T20:22:59.259Z,7.26
2023-04-20T20:25:26.525Z,7.15
2023-04-20T20:27:53.240Z,7.07
2023-04-20T20:30:19.929Z,7.01
2023-04-20T20:32:46.716Z,6.98
2023-04-20T20:35:13.665Z,6.91
2023-04-20T20:37:41.074Z,6.86
2023-04-20T20:40:14.684Z,6.92
2023-04-20T20:42:45.267Z,6.90
2023-04-20T20:45:13.152Z,6.91
2023-04-20T20:47:41.673Z,6.85
2023-04-20T20:50:09.576Z,6.78
2023-04-20T20:52:36.193Z,6.62
2023-04-20T20:55:03.115Z,6.51
2023-04-20T20:57:30.052Z,6.44
2023-04-20T20:59:56.695Z,6.42
2023-04-20T21:02:23.325Z,6.42
2023-04-20T21:04:50.099Z,6.42
2023-04-20T21:07:17.122Z,6.39
2023-04-20T21:09:43.725Z,6.29
2023-04-20T21:12:10.282Z,6.20
2023-04-20T21:14:37.431Z,6.16
2023-04-20T21:17:05.021Z,6.11
2023-04-20T21:19:33.346Z,6.09
2023-04-20T21:21:59.949Z,6.08
2023-04-20T21:24:26.616Z,6.09
2023-04-20T21:26:53.204Z,6.09
2023-04-20T21:29:20.283Z,6.05
2023-04-20T21:31:47.318Z,5.98
2023-04-20T21:34:13.964Z,5.88
2023-04-20T21:36:40.728Z,5.86
2023-04-20T21:39:10.241Z,5.89
2023-04-20T21:41:36.762Z,5.95
2023-04-20T21:44:03.719Z,5.99
2023-04-20T21:46:30.487Z,6.18
2023-04-20T21:48:57.203Z,6.49
2023-04-20T21:51:23.951Z,6.66
2023-04-20T21:53:50.662Z,7.08
2023-04-20T21:56:18.515Z,7.47
2023-04-20T21:58:45.207Z,7.70
2023-04-20T22:01:11.803Z,7.70
2023-04-20T22:03:38.565Z,7.68
2023-04-20T22:06:05.700Z,7.76
2023-04-20T22:08:32.354Z,7.79
2023-04-20T22:10:59.156Z,7.71
2023-04-20T22:13:25.801Z,7.59
2023-04-20T22:15:52.788Z,7.52
2023-04-20T22:18:29.820Z,7.48
2023-04-20T22:20:56.407Z,7.45
2023-04-20T22:23:23.072Z,7.44
2023-04-20T22:25:49.653Z,7.44
2023-04-20T22:28:16.787Z,7.50
2023-04-20T22:30:43.705Z,7.56
2023-04-20T22:33:10.438Z,7.64
2023-04-20T22:35:37.076Z,7.68
2023-04-20T22:38:04.058Z,7.75
2023-04-20T22:40:30.719Z,7.72
2023-04-20T22:42:57.518Z,7.71
2023-04-20T22:45:24.175Z,7.68
2023-04-20T22:47:51.081Z,7.67
2023-04-20T22:50:18.019Z,7.68
2023-04-20T22:52:44.759Z,7.61
2023-04-20T22:55:11.469Z,7.59
2023-04-20T22:57:39.213Z,7.61
2023-04-20T23:00:10.824Z,7.53
2023-04-20T23:02:38.078Z,7.54
2023-04-20T23:05:05.743Z,7.51
2023-04-20T23:07:33.326Z,7.48
2023-04-20T23:10:01.488Z,7.50
2023-04-20T23:12:29.618Z,7.44
2023-04-20T23:14:56.857Z,7.42
2023-04-20T23:17:23.693Z,7.36
2023-04-20T23:19:51.059Z,7.34
2023-04-20T23:22:17.908Z,7.35
2023-04-20T23:24:44.676Z,7.29
2023-04-20T23:27:11.356Z,7.28
2023-04-20T23:29:38.056Z,7.23
2023-04-20T23:32:05.068Z,7.19
2023-04-20T23:34:32.087Z,7.14
2023-04-20T23:36:58.916Z,7.12
2023-04-20T23:39:25.617Z,7.12
2023-04-20T23:41:52.241Z,7.02
2023-04-20T23:44:18.879Z,6.89
2023-04-20T23:46:45.541Z,6.80
2023-04-20T23:49:12.299Z,6.70
2023-04-20T23:51:38.965Z,6.65
2023-04-20T23:54:05.744Z,6.59
2023-04-20T23:56:32.431Z,6.56
2023-04-20T23:58:59.456Z,6.55
